sensor_id;sensor_type;location;lat;lon;timestamp;temperature;humidity
56162;DHT22;42045;52.986;6.014;2023-02-28T00:00:11;3.80;99.90
56162;DHT22;42045;52.986;6.014;2023-02-28T00:02:41;3.80;99.90
56162;DHT22;42045;52.986;6.014;2023-02-28T00:05:08;3.80;99.90
56162;DHT22;42045;52.986;6.014;2023-02-28T00:07:34;3.80;99.90
56162;DHT22;42045;52.986;6.014;2023-02-28T00:10:01;3.70;99.90
56162;DHT22;42045;52.986;6.014;2023-02-28T00:12:26;3.70;99.90
56162;DHT22;42045;52.986;6.014;2023-02-28T00:14:52;3.70;99.90
56162;DHT22;42045;52.986;6.014;2023-02-28T00:17:18;3.70;99.90
56162;DHT22;42045;52.986;6.014;2023-02-28T00:19:50;3.60;99.90
56162;DHT22;42045;52.986;6.014;2023-02-28T00:22:17;3.70;99.90
56162;DHT22;42045;52.986;6.014;2023-02-28T00:24:43;3.60;99.90
56162;DHT22;42045;52.986;6.014;2023-02-28T00:27:10;3.60;99.90
56162;DHT22;42045;52.986;6.014;2023-02-28T00:29:36;3.60;99.90
56162;DHT22;42045;52.986;6.014;2023-02-28T00:32:02;3.70;99.90
56162;DHT22;42045;52.986;6.014;2023-02-28T00:34:28;3.60;99.90
56162;DHT22;42045;52.986;6.014;2023-02-28T00:36:54;3.60;99.90
56162;DHT22;42045;52.986;6.014;2023-02-28T00:39:19;3.60;99.90
56162;DHT22;42045;52.986;6.014;2023-02-28T00:41:45;3.60;99.90
56162;DHT22;42045;52.986;6.014;2023-02-28T00:44:10;3.50;99.90
56162;DHT22;42045;52.986;6.014;2023-02-28T00:46:36;3.50;99.90
56162;DHT22;42045;52.986;6.014;2023-02-28T00:49:02;3.50;99.90
56162;DHT22;42045;52.986;6.014;2023-02-28T00:51:30;3.50;99.90
56162;DHT22;42045;52.986;6.014;2023-02-28T00:53:55;3.60;99.90
56162;DHT22;42045;52.986;6.014;2023-02-28T00:56:21;3.50;99.90
56162;DHT22;42045;52.986;6.014;2023-02-28T00:58:47;3.50;99.90
56162;DHT22;42045;52.986;6.014;2023-02-28T01:01:12;3.50;99.90
56162;DHT22;42045;52.986;6.014;2023-02-28T01:03:38;3.50;99.90
56162;DHT22;42045;52.986;6.014;2023-02-28T01:06:04;3.50;99.90
56162;DHT22;42045;52.986;6.014;2023-02-28T01:08:30;3.60;99.90
56162;DHT22;42045;52.986;6.014;2023-02-28T01:10:56;3.50;99.90
56162;DHT22;42045;52.986;6.014;2023-02-28T01:13:22;3.50;99.90
56162;DHT22;42045;52.986;6.014;2023-02-28T01:15:54;3.50;99.90
56162;DHT22;42045;52.986;6.014;2023-02-28T01:18:21;3.50;99.90
56162;DHT22;42045;52.986;6.014;2023-02-28T01:20:47;3.50;99.90
56162;DHT22;42045;52.986;6.014;2023-02-28T01:23:13;3.50;99.90
56162;DHT22;42045;52.986;6.014;2023-02-28T01:25:39;3.50;99.90
56162;DHT22;42045;52.986;6.014;2023-02-28T01:28:05;3.50;99.90
56162;DHT22;42045;52.986;6.014;2023-02-28T01:30:31;3.40;99.90
56162;DHT22;42045;52.986;6.014;2023-02-28T01:32:58;3.50;99.90
56162;DHT22;42045;52.986;6.014;2023-02-28T01:35:23;3.50;99.90
56162;DHT22;42045;52.986;6.014;2023-02-28T01:37:49;3.50;99.90
56162;DHT22;42045;52.986;6.014;2023-02-28T01:40:15;3.50;99.90
56162;DHT22;42045;52.986;6.014;2023-02-28T01:42:41;3.50;99.90
56162;DHT22;42045;52.986;6.014;2023-02-28T01:45:30;3.50;99.90
56162;DHT22;42045;52.986;6.014;2023-02-28T01:48:03;3.50;99.90
56162;DHT22;42045;52.986;6.014;2023-02-28T01:50:33;3.50;99.90
56162;DHT22;42045;52.986;6.014;2023-02-28T01:53:05;3.60;99.90
56162;DHT22;42045;52.986;6.014;2023-02-28T01:55:32;3.50;99.90
56162;DHT22;42045;52.986;6.014;2023-02-28T01:58:01;3.60;99.90
56162;DHT22;42045;52.986;6.014;2023-02-28T02:00:29;3.50;99.90
56162;DHT22;42045;52.986;6.014;2023-02-28T02:03:00;3.50;99.90
56162;DHT22;42045;52.986;6.014;2023-02-28T02:05:30;3.50;99.90
56162;DHT22;42045;52.986;6.014;2023-02-28T02:08:04;3.60;99.90
56162;DHT22;42045;52.986;6.014;2023-02-28T02:18:48;3.50;99.90
56162;DHT22;42045;52.986;6.014;2023-02-28T02:29:40;3.60;99.90
56162;DHT22;42045;52.986;6.014;2023-02-28T02:34:50;3.70;99.90
56162;DHT22;42045;52.986;6.014;2023-02-28T02:40:19;3.70;99.90
56162;DHT22;42045;52.986;6.014;2023-02-28T02:45:46;3.70;99.90
56162;DHT22;42045;52.986;6.014;2023-02-28T02:48:17;3.70;99.90
56162;DHT22;42045;52.986;6.014;2023-02-28T02:50:55;3.70;99.90
56162;DHT22;42045;52.986;6.014;2023-02-28T02:53:36;3.70;99.90
56162;DHT22;42045;52.986;6.014;2023-02-28T02:56:03;3.70;99.90
56162;DHT22;42045;52.986;6.014;2023-02-28T02:58:35;3.80;99.90
56162;DHT22;42045;52.986;6.014;2023-02-28T03:01:12;3.80;99.90
56162;DHT22;42045;52.986;6.014;2023-02-28T03:03:38;3.70;99.90
56162;DHT22;42045;52.986;6.014;2023-02-28T03:06:04;3.80;99.90
56162;DHT22;42045;52.986;6.014;2023-02-28T03:08:35;3.80;99.90
56162;DHT22;42045;52.986;6.014;2023-02-28T03:11:04;3.70;99.90
56162;DHT22;42045;52.986;6.014;2023-02-28T03:19:23;3.80;99.90
56162;DHT22;42045;52.986;6.014;2023-02-28T03:27:20;3.80;99.90
56162;DHT22;42045;52.986;6.014;2023-02-28T03:29:57;3.80;99.90
56162;DHT22;42045;52.986;6.014;2023-02-28T03:32:33;3.70;99.90
56162;DHT22;42045;52.986;6.014;2023-02-28T03:35:10;3.80;99.90
56162;DHT22;42045;52.986;6.014;2023-02-28T03:37:40;3.80;99.90
56162;DHT22;42045;52.986;6.014;2023-02-28T03:40:16;3.70;99.90
56162;DHT22;42045;52.986;6.014;2023-02-28T03:42:45;3.80;99.90
56162;DHT22;42045;52.986;6.014;2023-02-28T03:45:41;3.80;99.90
56162;DHT22;42045;52.986;6.014;2023-02-28T03:48:33;3.80;99.90
56162;DHT22;42045;52.986;6.014;2023-02-28T03:51:01;3.80;99.90
56162;DHT22;42045;52.986;6.014;2023-02-28T03:53:41;3.80;99.90
56162;DHT22;42045;52.986;6.014;2023-02-28T03:56:20;3.70;99.90
56162;DHT22;42045;52.986;6.014;2023-02-28T03:59:20;3.70;99.90
56162;DHT22;42045;52.986;6.014;2023-02-28T04:01:48;3.70;99.90
56162;DHT22;42045;52.986;6.014;2023-02-28T04:04:17;3.70;99.90
56162;DHT22;42045;52.986;6.014;2023-02-28T04:06:43;3.80;99.90
56162;DHT22;42045;52.986;6.014;2023-02-28T04:09:12;3.80;99.90
56162;DHT22;42045;52.986;6.014;2023-02-28T04:11:41;3.70;99.90
56162;DHT22;42045;52.986;6.014;2023-02-28T04:14:08;3.70;99.90
56162;DHT22;42045;52.986;6.014;2023-02-28T04:16:37;3.70;99.90
56162;DHT22;42045;52.986;6.014;2023-02-28T04:19:04;3.60;99.90
56162;DHT22;42045;52.986;6.014;2023-02-28T04:21:42;3.80;99.90
56162;DHT22;42045;52.986;6.014;2023-02-28T04:24:10;3.60;99.90
56162;DHT22;42045;52.986;6.014;2023-02-28T04:26:40;3.50;99.90
56162;DHT22;42045;52.986;6.014;2023-02-28T04:29:06;3.60;99.90
56162;DHT22;42045;52.986;6.014;2023-02-28T04:31:33;3.50;99.90
56162;DHT22;42045;52.986;6.014;2023-02-28T04:33:59;3.50;99.90
56162;DHT22;42045;52.986;6.014;2023-02-28T04:36:25;3.60;99.90
56162;DHT22;42045;52.986;6.014;2023-02-28T04:38:51;3.50;99.90
56162;DHT22;42045;52.986;6.014;2023-02-28T04:41:17;3.40;99.90
56162;DHT22;42045;52.986;6.014;2023-02-28T04:43:43;3.40;99.90
56162;DHT22;42045;52.986;6.014;2023-02-28T04:46:09;3.50;99.90
56162;DHT22;42045;52.986;6.014;2023-02-28T04:48:37;3.40;99.90
56162;DHT22;42045;52.986;6.014;2023-02-28T04:51:08;3.30;99.90
56162;DHT22;42045;52.986;6.014;2023-02-28T04:53:35;3.40;99.90
56162;DHT22;42045;52.986;6.014;2023-02-28T04:56:01;3.30;99.90
56162;DHT22;42045;52.986;6.014;2023-02-28T04:58:27;3.40;99.90
56162;DHT22;42045;52.986;6.014;2023-02-28T05:00:54;3.20;99.90
56162;DHT22;42045;52.986;6.014;2023-02-28T05:03:20;3.20;99.90
56162;DHT22;42045;52.986;6.014;2023-02-28T05:05:47;3.10;99.90
56162;DHT22;42045;52.986;6.014;2023-02-28T05:08:13;3.20;99.90
56162;DHT22;42045;52.986;6.014;2023-02-28T05:10:39;3.10;99.90
56162;DHT22;42045;52.986;6.014;2023-02-28T05:13:05;3.00;99.90
56162;DHT22;42045;52.986;6.014;2023-02-28T05:15:30;3.10;99.90
56162;DHT22;42045;52.986;6.014;2023-02-28T05:17:56;3.00;99.90
56162;DHT22;42045;52.986;6.014;2023-02-28T05:20:22;2.80;99.90
56162;DHT22;42045;52.986;6.014;2023-02-28T05:22:47;2.90;99.90
56162;DHT22;42045;52.986;6.014;2023-02-28T05:25:19;2.90;99.90
56162;DHT22;42045;52.986;6.014;2023-02-28T05:27:45;2.90;99.90
56162;DHT22;42045;52.986;6.014;2023-02-28T05:30:11;2.80;99.90
56162;DHT22;42045;52.986;6.014;2023-02-28T05:32:38;2.70;99.90
56162;DHT22;42045;52.986;6.014;2023-02-28T05:35:04;2.60;99.90
56162;DHT22;42045;52.986;6.014;2023-02-28T05:37:30;2.60;99.90
56162;DHT22;42045;52.986;6.014;2023-02-28T05:39:55;2.40;99.90
56162;DHT22;42045;52.986;6.014;2023-02-28T05:42:21;2.30;99.90
56162;DHT22;42045;52.986;6.014;2023-02-28T05:44:47;2.30;99.90
56162;DHT22;42045;52.986;6.014;2023-02-28T05:47:13;2.40;99.90
56162;DHT22;42045;52.986;6.014;2023-02-28T05:49:41;2.40;99.90
56162;DHT22;42045;52.986;6.014;2023-02-28T05:52:07;2.30;99.90
56162;DHT22;42045;52.986;6.014;2023-02-28T05:54:33;2.20;99.90
56162;DHT22;42045;52.986;6.014;2023-02-28T05:56:58;2.30;99.90
56162;DHT22;42045;52.986;6.014;2023-02-28T05:59:24;2.30;99.90
56162;DHT22;42045;52.986;6.014;2023-02-28T06:01:50;2.30;99.90
56162;DHT22;42045;52.986;6.014;2023-02-28T06:04:18;2.10;99.90
56162;DHT22;42045;52.986;6.014;2023-02-28T06:06:48;2.30;99.90
56162;DHT22;42045;52.986;6.014;2023-02-28T06:09:14;2.10;99.90
56162;DHT22;42045;52.986;6.014;2023-02-28T06:11:40;2.10;99.90
56162;DHT22;42045;52.986;6.014;2023-02-28T06:14:17;2.20;99.90
56162;DHT22;42045;52.986;6.014;2023-02-28T06:16:43;2.00;99.90
56162;DHT22;42045;52.986;6.014;2023-02-28T06:19:09;2.10;99.90
56162;DHT22;42045;52.986;6.014;2023-02-28T06:21:36;2.00;99.90
56162;DHT22;42045;52.986;6.014;2023-02-28T06:24:01;2.00;99.90
56162;DHT22;42045;52.986;6.014;2023-02-28T06:26:28;2.10;99.90
56162;DHT22;42045;52.986;6.014;2023-02-28T06:28:54;2.00;99.90
56162;DHT22;42045;52.986;6.014;2023-02-28T06:31:20;2.10;99.90
56162;DHT22;42045;52.986;6.014;2023-02-28T06:33:46;2.10;99.90
56162;DHT22;42045;52.986;6.014;2023-02-28T06:36:13;2.10;99.90
56162;DHT22;42045;52.986;6.014;2023-02-28T06:38:39;2.00;99.90
56162;DHT22;42045;52.986;6.014;2023-02-28T06:41:07;1.90;99.90
56162;DHT22;42045;52.986;6.014;2023-02-28T06:43:38;1.90;99.90
56162;DHT22;42045;52.986;6.014;2023-02-28T06:46:05;1.90;99.90
56162;DHT22;42045;52.986;6.014;2023-02-28T06:48:31;1.90;99.90
56162;DHT22;42045;52.986;6.014;2023-02-28T06:51:06;1.90;99.90
56162;DHT22;42045;52.986;6.014;2023-02-28T06:53:33;2.10;99.90
56162;DHT22;42045;52.986;6.014;2023-02-28T06:55:59;2.00;99.90
56162;DHT22;42045;52.986;6.014;2023-02-28T06:58:24;2.00;99.90
56162;DHT22;42045;52.986;6.014;2023-02-28T07:00:51;1.90;99.90
56162;DHT22;42045;52.986;6.014;2023-02-28T07:03:18;2.00;99.90
56162;DHT22;42045;52.986;6.014;2023-02-28T07:05:44;1.90;99.90
56162;DHT22;42045;52.986;6.014;2023-02-28T07:08:11;2.00;99.90
56162;DHT22;42045;52.986;6.014;2023-02-28T07:10:40;2.10;99.90
56162;DHT22;42045;52.986;6.014;2023-02-28T07:13:06;2.10;99.90
56162;DHT22;42045;52.986;6.014;2023-02-28T07:15:32;2.10;99.90
56162;DHT22;42045;52.986;6.014;2023-02-28T07:17:58;2.00;99.90
56162;DHT22;42045;52.986;6.014;2023-02-28T07:20:24;2.10;99.90
56162;DHT22;42045;52.986;6.014;2023-02-28T07:22:50;2.00;99.90
56162;DHT22;42045;52.986;6.014;2023-02-28T07:25:26;2.20;99.90
56162;DHT22;42045;52.986;6.014;2023-02-28T07:27:52;2.00;99.90
56162;DHT22;42045;52.986;6.014;2023-02-28T07:30:18;2.20;99.90
56162;DHT22;42045;52.986;6.014;2023-02-28T07:32:44;2.20;99.90
56162;DHT22;42045;52.986;6.014;2023-02-28T07:35:09;2.10;99.90
56162;DHT22;42045;52.986;6.014;2023-02-28T07:37:35;2.10;99.90
56162;DHT22;42045;52.986;6.014;2023-02-28T07:40:06;2.10;99.90
56162;DHT22;42045;52.986;6.014;2023-02-28T07:42:35;2.10;99.90
56162;DHT22;42045;52.986;6.014;2023-02-28T07:45:01;2.00;99.90
56162;DHT22;42045;52.986;6.014;2023-02-28T07:47:29;2.20;99.90
56162;DHT22;42045;52.986;6.014;2023-02-28T07:49:55;2.10;99.90
56162;DHT22;42045;52.986;6.014;2023-02-28T07:52:21;2.20;99.90
56162;DHT22;42045;52.986;6.014;2023-02-28T07:54:49;2.20;99.90
56162;DHT22;42045;52.986;6.014;2023-02-28T07:57:14;2.30;99.90
56162;DHT22;42045;52.986;6.014;2023-02-28T07:59:40;2.30;99.90
56162;DHT22;42045;52.986;6.014;2023-02-28T08:02:06;2.40;99.90
56162;DHT22;42045;52.986;6.014;2023-02-28T08:04:32;2.30;99.90
56162;DHT22;42045;52.986;6.014;2023-02-28T08:06:58;2.40;99.90
56162;DHT22;42045;52.986;6.014;2023-02-28T08:09:24;2.40;99.90
56162;DHT22;42045;52.986;6.014;2023-02-28T08:11:50;2.50;99.90
56162;DHT22;42045;52.986;6.014;2023-02-28T08:14:15;2.40;99.90
56162;DHT22;42045;52.986;6.014;2023-02-28T08:16:41;2.60;99.90
56162;DHT22;42045;52.986;6.014;2023-02-28T08:19:08;2.60;99.90
56162;DHT22;42045;52.986;6.014;2023-02-28T08:21:34;2.60;99.90
56162;DHT22;42045;52.986;6.014;2023-02-28T08:24:00;2.50;99.90
56162;DHT22;42045;52.986;6.014;2023-02-28T08:26:26;2.70;99.90
56162;DHT22;42045;52.986;6.014;2023-02-28T08:28:51;2.50;99.90
56162;DHT22;42045;52.986;6.014;2023-02-28T08:31:17;2.60;99.90
56162;DHT22;42045;52.986;6.014;2023-02-28T08:33:43;2.60;99.90
56162;DHT22;42045;52.986;6.014;2023-02-28T08:36:10;2.70;99.90
56162;DHT22;42045;52.986;6.014;2023-02-28T08:38:37;2.80;99.90
56162;DHT22;42045;52.986;6.014;2023-02-28T08:41:09;2.70;99.90
56162;DHT22;42045;52.986;6.014;2023-02-28T08:43:35;2.70;99.90
56162;DHT22;42045;52.986;6.014;2023-02-28T08:46:01;2.80;99.90
56162;DHT22;42045;52.986;6.014;2023-02-28T08:48:29;2.80;99.90
56162;DHT22;42045;52.986;6.014;2023-02-28T08:50:57;2.80;99.90
56162;DHT22;42045;52.986;6.014;2023-02-28T08:53:23;2.90;99.90
56162;DHT22;42045;52.986;6.014;2023-02-28T08:55:56;3.00;99.90
56162;DHT22;42045;52.986;6.014;2023-02-28T08:58:22;3.00;99.90
56162;DHT22;42045;52.986;6.014;2023-02-28T09:00:48;3.10;99.90
56162;DHT22;42045;52.986;6.014;2023-02-28T09:03:13;3.20;99.90
56162;DHT22;42045;52.986;6.014;2023-02-28T09:05:39;3.30;99.90
56162;DHT22;42045;52.986;6.014;2023-02-28T09:08:05;3.40;99.90
56162;DHT22;42045;52.986;6.014;2023-02-28T09:10:30;3.60;99.90
56162;DHT22;42045;52.986;6.014;2023-02-28T09:12:56;3.60;99.90
56162;DHT22;42045;52.986;6.014;2023-02-28T09:15:22;3.70;99.90
56162;DHT22;42045;52.986;6.014;2023-02-28T09:17:47;3.80;99.90
56162;DHT22;42045;52.986;6.014;2023-02-28T09:20:13;3.90;99.90
56162;DHT22;42045;52.986;6.014;2023-02-28T09:22:39;3.90;99.90
56162;DHT22;42045;52.986;6.014;2023-02-28T09:25:05;4.00;99.90
56162;DHT22;42045;52.986;6.014;2023-02-28T09:27:30;4.10;99.90
56162;DHT22;42045;52.986;6.014;2023-02-28T09:29:56;4.20;99.90
56162;DHT22;42045;52.986;6.014;2023-02-28T09:32:22;4.30;99.90
56162;DHT22;42045;52.986;6.014;2023-02-28T09:34:47;4.40;99.90
56162;DHT22;42045;52.986;6.014;2023-02-28T09:37:13;4.40;99.90
56162;DHT22;42045;52.986;6.014;2023-02-28T09:39:38;4.40;99.90
56162;DHT22;42045;52.986;6.014;2023-02-28T09:42:04;4.40;99.90
56162;DHT22;42045;52.986;6.014;2023-02-28T09:44:37;4.40;99.90
56162;DHT22;42045;52.986;6.014;2023-02-28T09:49:46;4.50;99.90
56162;DHT22;42045;52.986;6.014;2023-02-28T09:52:17;4.60;99.90
56162;DHT22;42045;52.986;6.014;2023-02-28T09:54:45;4.60;99.90
56162;DHT22;42045;52.986;6.014;2023-02-28T10:05:15;5.00;99.90
56162;DHT22;42045;52.986;6.014;2023-02-28T10:13:04;5.20;99.90
56162;DHT22;42045;52.986;6.014;2023-02-28T10:15:31;5.10;99.90
56162;DHT22;42045;52.986;6.014;2023-02-28T10:18:01;5.10;99.90
56162;DHT22;42045;52.986;6.014;2023-02-28T10:20:29;5.20;99.90
56162;DHT22;42045;52.986;6.014;2023-02-28T10:23:13;5.20;99.90
56162;DHT22;42045;52.986;6.014;2023-02-28T10:25:44;5.40;99.90
56162;DHT22;42045;52.986;6.014;2023-02-28T10:28:16;5.40;99.90
56162;DHT22;42045;52.986;6.014;2023-02-28T10:30:49;5.50;99.90
56162;DHT22;42045;52.986;6.014;2023-02-28T10:33:19;5.60;99.90
56162;DHT22;42045;52.986;6.014;2023-02-28T10:35:47;5.60;99.90
56162;DHT22;42045;52.986;6.014;2023-02-28T10:38:23;5.60;99.90
56162;DHT22;42045;52.986;6.014;2023-02-28T10:40:50;5.60;99.90
56162;DHT22;42045;52.986;6.014;2023-02-28T10:46:04;5.60;99.90
56162;DHT22;42045;52.986;6.014;2023-02-28T10:51:01;5.50;99.90
56162;DHT22;42045;52.986;6.014;2023-02-28T10:53:38;5.50;99.90
56162;DHT22;42045;52.986;6.014;2023-02-28T11:01:17;5.70;99.90
56162;DHT22;42045;52.986;6.014;2023-02-28T11:03:44;5.70;99.90
56162;DHT22;42045;52.986;6.014;2023-02-28T11:06:19;5.80;99.90
56162;DHT22;42045;52.986;6.014;2023-02-28T11:08:49;5.80;99.90
56162;DHT22;42045;52.986;6.014;2023-02-28T11:11:16;5.90;99.90
56162;DHT22;42045;52.986;6.014;2023-02-28T11:13:43;5.90;99.90
56162;DHT22;42045;52.986;6.014;2023-02-28T11:16:12;6.00;99.90
56162;DHT22;42045;52.986;6.014;2023-02-28T11:21:23;6.00;99.90
56162;DHT22;42045;52.986;6.014;2023-02-28T11:23:53;6.10;99.90
56162;DHT22;42045;52.986;6.014;2023-02-28T11:26:44;6.00;99.90
56162;DHT22;42045;52.986;6.014;2023-02-28T11:29:30;6.00;99.90
56162;DHT22;42045;52.986;6.014;2023-02-28T11:34:32;6.10;99.90
56162;DHT22;42045;52.986;6.014;2023-02-28T11:36:59;6.10;99.90
56162;DHT22;42045;52.986;6.014;2023-02-28T11:39:26;6.10;99.90
56162;DHT22;42045;52.986;6.014;2023-02-28T11:44:45;6.10;99.90
56162;DHT22;42045;52.986;6.014;2023-02-28T11:47:44;6.10;99.90
56162;DHT22;42045;52.986;6.014;2023-02-28T11:55:35;6.30;99.90
56162;DHT22;42045;52.986;6.014;2023-02-28T12:03:43;6.50;99.90
56162;DHT22;42045;52.986;6.014;2023-02-28T12:06:33;6.50;99.90
56162;DHT22;42045;52.986;6.014;2023-02-28T12:17:27;6.60;99.90
56162;DHT22;42045;52.986;6.014;2023-02-28T12:20:24;6.70;99.90
56162;DHT22;42045;52.986;6.014;2023-02-28T12:26:02;6.70;99.90
56162;DHT22;42045;52.986;6.014;2023-02-28T12:28:38;6.80;99.90
56162;DHT22;42045;52.986;6.014;2023-02-28T12:31:24;6.80;99.90
56162;DHT22;42045;52.986;6.014;2023-02-28T12:34:06;6.80;99.90
56162;DHT22;42045;52.986;6.014;2023-02-28T12:36:35;6.80;99.90
56162;DHT22;42045;52.986;6.014;2023-02-28T12:41:53;6.90;99.90
56162;DHT22;42045;52.986;6.014;2023-02-28T12:44:27;6.90;99.90
56162;DHT22;42045;52.986;6.014;2023-02-28T12:46:59;7.00;99.90
56162;DHT22;42045;52.986;6.014;2023-02-28T12:52:52;7.00;99.90
56162;DHT22;42045;52.986;6.014;2023-02-28T13:04:07;7.00;99.90
56162;DHT22;42045;52.986;6.014;2023-02-28T13:09:24;7.10;99.90
56162;DHT22;42045;52.986;6.014;2023-02-28T13:11:52;7.10;99.90
56162;DHT22;42045;52.986;6.014;2023-02-28T13:14:44;7.10;99.90
56162;DHT22;42045;52.986;6.014;2023-02-28T13:17:19;7.10;99.90
56162;DHT22;42045;52.986;6.014;2023-02-28T13:29:52;7.00;99.90
56162;DHT22;42045;52.986;6.014;2023-02-28T13:47:32;7.10;99.90
56162;DHT22;42045;52.986;6.014;2023-02-28T13:58:10;7.00;99.90
56162;DHT22;42045;52.986;6.014;2023-02-28T14:04:02;6.80;99.90
56162;DHT22;42045;52.986;6.014;2023-02-28T14:06:33;6.80;99.90
56162;DHT22;42045;52.986;6.014;2023-02-28T14:09:06;6.70;99.90
56162;DHT22;42045;52.986;6.014;2023-02-28T14:11:42;6.80;99.90
56162;DHT22;42045;52.986;6.014;2023-02-28T14:14:53;6.80;99.90
56162;DHT22;42045;52.986;6.014;2023-02-28T14:16:55;6.80;99.90
56162;DHT22;42045;52.986;6.014;2023-02-28T14:19:28;6.90;99.90
56162;DHT22;42045;52.986;6.014;2023-02-28T14:28:22;7.00;99.90
56162;DHT22;42045;52.986;6.014;2023-02-28T14:31:13;7.10;99.90
56162;DHT22;42045;52.986;6.014;2023-02-28T14:36:42;7.00;99.90
56162;DHT22;42045;52.986;6.014;2023-02-28T14:39:13;7.10;99.90
56162;DHT22;42045;52.986;6.014;2023-02-28T14:41:41;7.10;99.90
56162;DHT22;42045;52.986;6.014;2023-02-28T14:44:22;7.10;99.90
56162;DHT22;42045;52.986;6.014;2023-02-28T14:46:51;7.10;99.90
56162;DHT22;42045;52.986;6.014;2023-02-28T14:52:22;7.10;99.90
56162;DHT22;42045;52.986;6.014;2023-02-28T14:54:56;7.10;99.90
56162;DHT22;42045;52.986;6.014;2023-02-28T14:57:30;7.20;99.90
56162;DHT22;42045;52.986;6.014;2023-02-28T15:00:03;7.20;99.90
56162;DHT22;42045;52.986;6.014;2023-02-28T15:02:33;7.10;99.90
56162;DHT22;42045;52.986;6.014;2023-02-28T15:07:47;7.00;99.90
56162;DHT22;42045;52.986;6.014;2023-02-28T15:10:23;6.80;99.90
56162;DHT22;42045;52.986;6.014;2023-02-28T15:13:02;6.80;99.90
56162;DHT22;42045;52.986;6.014;2023-02-28T15:20:56;6.60;99.90
56162;DHT22;42045;52.986;6.014;2023-02-28T15:23:23;6.50;99.90
56162;DHT22;42045;52.986;6.014;2023-02-28T15:25:50;6.60;99.90
56162;DHT22;42045;52.986;6.014;2023-02-28T15:28:19;6.60;99.90
56162;DHT22;42045;52.986;6.014;2023-02-28T15:31:03;6.60;99.90
56162;DHT22;42045;52.986;6.014;2023-02-28T15:33:52;6.60;99.90
56162;DHT22;42045;52.986;6.014;2023-02-28T15:36:19;6.60;99.90
56162;DHT22;42045;52.986;6.014;2023-02-28T15:38:51;6.60;99.90
56162;DHT22;42045;52.986;6.014;2023-02-28T15:41:31;6.60;99.90
56162;DHT22;42045;52.986;6.014;2023-02-28T15:47:04;6.60;99.90
56162;DHT22;42045;52.986;6.014;2023-02-28T15:49:39;6.50;99.90
56162;DHT22;42045;52.986;6.014;2023-02-28T15:52:05;6.40;99.90
56162;DHT22;42045;52.986;6.014;2023-02-28T15:54:34;6.40;99.90
56162;DHT22;42045;52.986;6.014;2023-02-28T15:57:05;6.40;99.90
56162;DHT22;42045;52.986;6.014;2023-02-28T15:59:35;6.30;99.90
56162;DHT22;42045;52.986;6.014;2023-02-28T16:02:17;6.30;99.90
56162;DHT22;42045;52.986;6.014;2023-02-28T16:05:24;6.20;99.90
56162;DHT22;42045;52.986;6.014;2023-02-28T16:07:55;6.10;99.90
56162;DHT22;42045;52.986;6.014;2023-02-28T16:10:21;6.00;99.90
56162;DHT22;42045;52.986;6.014;2023-02-28T16:12:50;5.90;99.90
56162;DHT22;42045;52.986;6.014;2023-02-28T16:15:28;5.90;99.90
56162;DHT22;42045;52.986;6.014;2023-02-28T16:17:56;5.90;99.90
56162;DHT22;42045;52.986;6.014;2023-02-28T16:20:28;5.90;99.90
56162;DHT22;42045;52.986;6.014;2023-02-28T16:22:54;5.80;99.90
56162;DHT22;42045;52.986;6.014;2023-02-28T16:25:25;5.80;99.90
56162;DHT22;42045;52.986;6.014;2023-02-28T16:27:53;5.80;99.90
56162;DHT22;42045;52.986;6.014;2023-02-28T16:30:27;5.70;99.90
56162;DHT22;42045;52.986;6.014;2023-02-28T16:32:54;5.60;99.90
56162;DHT22;42045;52.986;6.014;2023-02-28T16:35:21;5.60;99.90
56162;DHT22;42045;52.986;6.014;2023-02-28T16:37:47;5.60;99.90
56162;DHT22;42045;52.986;6.014;2023-02-28T16:42:40;5.50;99.90
56162;DHT22;42045;52.986;6.014;2023-02-28T16:45:09;5.40;99.90
56162;DHT22;42045;52.986;6.014;2023-02-28T16:47:36;5.40;99.90
56162;DHT22;42045;52.986;6.014;2023-02-28T16:50:12;5.30;99.90
56162;DHT22;42045;52.986;6.014;2023-02-28T16:52:38;5.20;99.90
56162;DHT22;42045;52.986;6.014;2023-02-28T16:55:04;5.10;99.90
56162;DHT22;42045;52.986;6.014;2023-02-28T16:57:29;5.00;99.90
56162;DHT22;42045;52.986;6.014;2023-02-28T16:59:55;5.00;99.90
56162;DHT22;42045;52.986;6.014;2023-02-28T17:02:21;4.80;99.90
56162;DHT22;42045;52.986;6.014;2023-02-28T17:04:46;4.80;99.90
56162;DHT22;42045;52.986;6.014;2023-02-28T17:07:14;4.70;99.90
56162;DHT22;42045;52.986;6.014;2023-02-28T17:09:41;4.60;99.90
56162;DHT22;42045;52.986;6.014;2023-02-28T17:12:07;4.60;99.90
56162;DHT22;42045;52.986;6.014;2023-02-28T17:14:34;4.40;99.90
56162;DHT22;42045;52.986;6.014;2023-02-28T17:16:59;4.30;99.90
56162;DHT22;42045;52.986;6.014;2023-02-28T17:19:25;4.20;99.90
56162;DHT22;42045;52.986;6.014;2023-02-28T17:21:51;4.10;99.90
56162;DHT22;42045;52.986;6.014;2023-02-28T17:24:16;4.10;99.90
56162;DHT22;42045;52.986;6.014;2023-02-28T17:26:42;4.00;99.90
56162;DHT22;42045;52.986;6.014;2023-02-28T17:29:34;3.90;99.90
56162;DHT22;42045;52.986;6.014;2023-02-28T17:32:00;3.80;99.90
56162;DHT22;42045;52.986;6.014;2023-02-28T17:34:25;3.70;99.90
56162;DHT22;42045;52.986;6.014;2023-02-28T17:36:51;3.60;99.90
56162;DHT22;42045;52.986;6.014;2023-02-28T17:39:18;3.50;99.90
56162;DHT22;42045;52.986;6.014;2023-02-28T17:41:50;3.50;99.90
56162;DHT22;42045;52.986;6.014;2023-02-28T17:44:17;3.40;99.90
56162;DHT22;42045;52.986;6.014;2023-02-28T17:46:43;3.40;99.90
56162;DHT22;42045;52.986;6.014;2023-02-28T17:49:10;3.40;99.90
56162;DHT22;42045;52.986;6.014;2023-02-28T17:51:35;3.30;99.90
56162;DHT22;42045;52.986;6.014;2023-02-28T17:54:01;3.30;99.90
56162;DHT22;42045;52.986;6.014;2023-02-28T17:56:27;3.30;99.90
56162;DHT22;42045;52.986;6.014;2023-02-28T17:58:55;3.30;99.90
56162;DHT22;42045;52.986;6.014;2023-02-28T18:01:22;3.20;99.90
56162;DHT22;42045;52.986;6.014;2023-02-28T18:03:48;3.30;99.90
56162;DHT22;42045;52.986;6.014;2023-02-28T18:08:50;3.30;99.90
56162;DHT22;42045;52.986;6.014;2023-02-28T18:11:20;3.20;99.90
56162;DHT22;42045;52.986;6.014;2023-02-28T18:13:48;3.20;99.90
56162;DHT22;42045;52.986;6.014;2023-02-28T18:16:14;3.00;99.90
56162;DHT22;42045;52.986;6.014;2023-02-28T18:18:40;2.90;99.90
56162;DHT22;42045;52.986;6.014;2023-02-28T18:21:08;2.80;99.90
56162;DHT22;42045;52.986;6.014;2023-02-28T18:23:34;2.60;99.90
56162;DHT22;42045;52.986;6.014;2023-02-28T18:26:00;2.50;99.90
56162;DHT22;42045;52.986;6.014;2023-02-28T18:28:26;2.50;99.90
56162;DHT22;42045;52.986;6.014;2023-02-28T18:30:52;2.40;99.90
56162;DHT22;42045;52.986;6.014;2023-02-28T18:33:17;2.30;99.90
56162;DHT22;42045;52.986;6.014;2023-02-28T18:35:44;2.30;99.90
56162;DHT22;42045;52.986;6.014;2023-02-28T18:38:13;2.20;99.90
56162;DHT22;42045;52.986;6.014;2023-02-28T18:40:40;2.20;99.90
56162;DHT22;42045;52.986;6.014;2023-02-28T18:43:07;2.20;99.90
56162;DHT22;42045;52.986;6.014;2023-02-28T18:45:39;2.10;99.90
56162;DHT22;42045;52.986;6.014;2023-02-28T18:48:07;2.10;99.90
56162;DHT22;42045;52.986;6.014;2023-02-28T18:50:33;2.00;99.90
56162;DHT22;42045;52.986;6.014;2023-02-28T18:53:01;2.00;99.90